Monticello, MN (55362)

6:15 AM CDT on September 01, 2014 (GMT -0500)
Definitive Contracting PWS | Change Station
CLOSE
Current Station
Personal Weather Station
Location: Big Lake, MN
Elevation: 919 ft
Nearby Weather Stations

Elev 919 ft 45.31 °N, 93.74 °W | Updated 10 minutes ago

Rain
Rain
64.0 °F
Feels Like 64.0 °F
N
1.7
Wind Variable Wind from SSW

Today
High -- | Low -- °F
--% Chance of Precip.
Yesterday
High -- | Low -- °F
Precip. -- in
6:36 AM 7:52 PM
Waxing Crescent, 40% visible
Pressure 29.66 in
Visibility 10.0 miles
Clouds Scattered Clouds 1500 ft
Scattered Clouds 3000 ft
Mostly Cloudy 11000 ft
Dew Point 64 °F
Humidity 99%
Rainfall 0.04 in
Snow Depth Not available.
UV 0 out of 12
Pollen 8.10 out of 12
Ozone Good
PM2.5 Good
Flu Activity Not available.
METAR KCFE 011055Z AUTO 00000KT 10SM -RA SCT015 SCT030 BKN110 18/16 A2966 RMK AO2 T01800163

More Conditions Fewer Conditions

Pressure 29.66 in
Visibility 10.0 miles
Clouds Scattered Clouds 1500 ft
Scattered Clouds 3000 ft
Mostly Cloudy 11000 ft
Dew Point 64 °F
Humidity 99%
Rainfall 0.04 in
Snow Depth Not available.
UV 0 out of 12
Pollen 8.10 out of 12
Ozone Good
PM2.5 Good
Flu Activity Not available.
METAR KCFE 011055Z AUTO 00000KT 10SM -RA SCT015 SCT030 BKN110 18/16 A2966 RMK AO2 T01800163

More Conditions Fewer Conditions

10-Day Weather Forecast

Almanac

Astronomy

Sep. 01, 2014 Rise Set
Actual Time 6:36 AM CDT 7:52 PM CDT
Civil Twilight 6:06 AM CDT 8:22 PM CDT
Nautical Twilight 5:29 AM CDT 8:59 PM CDT
Astronomical Twilight 4:50 AM CDT 9:38 PM CDT
Moon 1:42 PM CDT 11:34 PM CDT
Length of Visible Light 14h 16m
Length of Day
13h 15m
Tomorrow will be 3m 4s shorter.
Waxing Crescent, 40% of the Moon is Illuminated
Today
Waxing Crescent
Sep 2
First Quarter
Sep 8
Full
Sep 15
Last Quarter
Sep 24
New

Today's Extremes

State Highs State Lows

Community

WunderPhotos

Upload Photos

1,749,188 photos uploaded!

Nearby

Air Quality

  Air Quality AQ Index Pollutant
Yesterday Good
OZONE
Yesterday Good
PM2.5
Current Good
OZONE
Current Good
PM2.5
Monday Good
OZONE
Monday Good
PM2.5
Tuesday Good
OZONE
Tuesday Good
PM2.5
Wednesday Good
OZONE
Wednesday Good
PM2.5
Thursday Good
PM2.5
Thursday Good
OZONE
Friday Good
OZONE
Friday Good
PM2.5

Snow Depth

Station Depth Elevation
No new snow has been reported.

Earthquake Activity

City Distance Mag. Time & Date
No recent earthquake activity has been reported nearby.
Minimum magnitude displayed is 2.5.

Coastal Water Temperatures

Place Temperature
No Stations Reporting

Nearby Weather Stations